Terminal Aerodrome Forecast
Issued by NWS

Home | Current Version | Previous Version | Text Only | Print | Product List | Glossary On
Versions: 1 2 3 4 5 6 7 8 9 10 11 12 13
228
FTUS44 KJAN 051720
TAFGTR
TAF
KGTR 051720Z 0518/0618 35005KT 4SM BR OVC004
     FM052100 10011KT 2SM RA BR VCTS BKN003 OVC010CB
     FM060300 14009KT 3SM BR VCTS BKN003 OVC010CB
     FM061400 26009KT 1/2SM FG OVC003=

USA.gov is the U.S. government's official web portal to all federal, state and local government web resources and services.